sensor_id;sensor_type;location;lat;lon;timestamp;temperature;humidity
47765;DHT22;33529;49.242;8.670;2022-12-29T00:01:42;10.50;99.90
47765;DHT22;33529;49.242;8.670;2022-12-29T00:04:12;10.50;99.90
47765;DHT22;33529;49.242;8.670;2022-12-29T00:06:41;10.60;99.90
47765;DHT22;33529;49.242;8.670;2022-12-29T00:09:10;10.60;99.90
47765;DHT22;33529;49.242;8.670;2022-12-29T00:11:38;10.70;99.90
47765;DHT22;33529;49.242;8.670;2022-12-29T00:14:05;10.70;99.90
47765;DHT22;33529;49.242;8.670;2022-12-29T00:16:52;10.60;99.90
47765;DHT22;33529;49.242;8.670;2022-12-29T00:19:19;10.60;99.90
47765;DHT22;33529;49.242;8.670;2022-12-29T00:22:05;10.60;99.90
47765;DHT22;33529;49.242;8.670;2022-12-29T00:24:50;10.50;99.90
47765;DHT22;33529;49.242;8.670;2022-12-29T00:27:19;10.60;99.90
47765;DHT22;33529;49.242;8.670;2022-12-29T00:30:12;10.60;99.90
47765;DHT22;33529;49.242;8.670;2022-12-29T00:32:58;10.50;99.90
47765;DHT22;33529;49.242;8.670;2022-12-29T00:35:46;10.50;99.90
47765;DHT22;33529;49.242;8.670;2022-12-29T00:38:14;10.40;99.90
47765;DHT22;33529;49.242;8.670;2022-12-29T00:40:59;10.40;99.90
47765;DHT22;33529;49.242;8.670;2022-12-29T00:43:45;10.50;99.90
47765;DHT22;33529;49.242;8.670;2022-12-29T00:46:32;10.40;99.90
47765;DHT22;33529;49.242;8.670;2022-12-29T00:49:00;10.40;99.90
47765;DHT22;33529;49.242;8.670;2022-12-29T00:51:46;10.40;99.90
47765;DHT22;33529;49.242;8.670;2022-12-29T00:54:13;10.50;99.90
47765;DHT22;33529;49.242;8.670;2022-12-29T00:56:41;10.40;99.90
47765;DHT22;33529;49.242;8.670;2022-12-29T00:59:09;10.40;99.90
47765;DHT22;33529;49.242;8.670;2022-12-29T01:01:37;10.40;99.90
47765;DHT22;33529;49.242;8.670;2022-12-29T01:04:05;10.40;99.90
47765;DHT22;33529;49.242;8.670;2022-12-29T01:06:33;10.50;99.90
47765;DHT22;33529;49.242;8.670;2022-12-29T01:09:00;10.50;99.90
47765;DHT22;33529;49.242;8.670;2022-12-29T01:11:46;10.60;99.90
47765;DHT22;33529;49.242;8.670;2022-12-29T01:14:13;10.70;99.90
47765;DHT22;33529;49.242;8.670;2022-12-29T01:16:40;10.80;99.90
47765;DHT22;33529;49.242;8.670;2022-12-29T01:19:08;10.80;99.90
47765;DHT22;33529;49.242;8.670;2022-12-29T01:21:35;11.00;99.90
47765;DHT22;33529;49.242;8.670;2022-12-29T01:24:02;11.00;99.90
47765;DHT22;33529;49.242;8.670;2022-12-29T01:26:29;11.00;99.90
47765;DHT22;33529;49.242;8.670;2022-12-29T01:28:56;11.00;99.90
47765;DHT22;33529;49.242;8.670;2022-12-29T01:31:23;10.90;99.90
47765;DHT22;33529;49.242;8.670;2022-12-29T01:33:50;10.90;99.90
47765;DHT22;33529;49.242;8.670;2022-12-29T01:36:19;11.00;99.90
47765;DHT22;33529;49.242;8.670;2022-12-29T01:38:45;11.00;99.90
47765;DHT22;33529;49.242;8.670;2022-12-29T01:41:14;10.90;99.90
47765;DHT22;33529;49.242;8.670;2022-12-29T01:43:44;11.00;99.90
47765;DHT22;33529;49.242;8.670;2022-12-29T01:46:42;11.00;99.90
47765;DHT22;33529;49.242;8.670;2022-12-29T01:49:18;11.00;99.90
47765;DHT22;33529;49.242;8.670;2022-12-29T01:51:52;11.10;99.90
47765;DHT22;33529;49.242;8.670;2022-12-29T01:54:48;11.10;99.90
47765;DHT22;33529;49.242;8.670;2022-12-29T01:57:23;11.10;99.90
47765;DHT22;33529;49.242;8.670;2022-12-29T02:00:10;11.10;99.90
47765;DHT22;33529;49.242;8.670;2022-12-29T02:02:46;11.10;99.90
47765;DHT22;33529;49.242;8.670;2022-12-29T02:05:27;11.00;99.90
47765;DHT22;33529;49.242;8.670;2022-12-29T02:07:55;11.10;99.90
47765;DHT22;33529;49.242;8.670;2022-12-29T02:10:24;11.00;99.90
47765;DHT22;33529;49.242;8.670;2022-12-29T02:12:52;10.90;99.90
47765;DHT22;33529;49.242;8.670;2022-12-29T02:15:30;10.90;99.90
47765;DHT22;33529;49.242;8.670;2022-12-29T02:18:13;10.80;99.90
47765;DHT22;33529;49.242;8.670;2022-12-29T02:31:52;10.40;99.90
47765;DHT22;33529;49.242;8.670;2022-12-29T02:34:40;10.40;99.90
47765;DHT22;33529;49.242;8.670;2022-12-29T02:37:17;10.30;99.90
47765;DHT22;33529;49.242;8.670;2022-12-29T02:40:06;10.40;99.90
47765;DHT22;33529;49.242;8.670;2022-12-29T02:42:42;10.40;99.90
47765;DHT22;33529;49.242;8.670;2022-12-29T02:45:15;10.40;99.90
47765;DHT22;33529;49.242;8.670;2022-12-29T02:51:02;10.50;99.90
47765;DHT22;33529;49.242;8.670;2022-12-29T02:53:32;10.50;99.90
47765;DHT22;33529;49.242;8.670;2022-12-29T02:56:18;10.40;99.90
47765;DHT22;33529;49.242;8.670;2022-12-29T02:58:45;10.30;99.90
47765;DHT22;33529;49.242;8.670;2022-12-29T03:04:18;10.20;99.90
47765;DHT22;33529;49.242;8.670;2022-12-29T03:07:00;10.10;99.90
47765;DHT22;33529;49.242;8.670;2022-12-29T03:09:41;10.00;99.90
47765;DHT22;33529;49.242;8.670;2022-12-29T03:12:35;10.00;99.90
47765;DHT22;33529;49.242;8.670;2022-12-29T03:19:08;10.00;99.90
47765;DHT22;33529;49.242;8.670;2022-12-29T03:21:50;10.10;99.90
47765;DHT22;33529;49.242;8.670;2022-12-29T03:24:44;10.10;99.90
47765;DHT22;33529;49.242;8.670;2022-12-29T03:27:17;10.10;99.90
47765;DHT22;33529;49.242;8.670;2022-12-29T03:29:48;10.10;99.90
47765;DHT22;33529;49.242;8.670;2022-12-29T03:32:27;10.20;99.90
47765;DHT22;33529;49.242;8.670;2022-12-29T03:34:56;10.20;99.90
47765;DHT22;33529;49.242;8.670;2022-12-29T03:37:29;10.20;99.90
47765;DHT22;33529;49.242;8.670;2022-12-29T03:39:58;10.20;99.90
47765;DHT22;33529;49.242;8.670;2022-12-29T03:42:27;10.10;99.90
47765;DHT22;33529;49.242;8.670;2022-12-29T03:44:57;10.10;99.90
47765;DHT22;33529;49.242;8.670;2022-12-29T03:47:24;10.10;99.90
47765;DHT22;33529;49.242;8.670;2022-12-29T03:49:53;10.00;99.90
47765;DHT22;33529;49.242;8.670;2022-12-29T03:52:20;10.10;99.90
47765;DHT22;33529;49.242;8.670;2022-12-29T03:54:47;10.10;99.90
47765;DHT22;33529;49.242;8.670;2022-12-29T03:57:14;10.20;99.90
47765;DHT22;33529;49.242;8.670;2022-12-29T03:59:51;10.30;99.90
47765;DHT22;33529;49.242;8.670;2022-12-29T04:02:18;10.30;99.90
47765;DHT22;33529;49.242;8.670;2022-12-29T04:04:46;10.30;99.90
47765;DHT22;33529;49.242;8.670;2022-12-29T04:07:12;10.30;99.90
47765;DHT22;33529;49.242;8.670;2022-12-29T04:09:43;10.30;99.90
47765;DHT22;33529;49.242;8.670;2022-12-29T04:12:17;10.30;99.90
47765;DHT22;33529;49.242;8.670;2022-12-29T04:14:43;10.30;99.90
47765;DHT22;33529;49.242;8.670;2022-12-29T04:17:12;10.20;99.90
47765;DHT22;33529;49.242;8.670;2022-12-29T04:19:40;10.30;99.90
47765;DHT22;33529;49.242;8.670;2022-12-29T04:22:09;10.40;99.90
47765;DHT22;33529;49.242;8.670;2022-12-29T04:24:36;10.50;99.90
47765;DHT22;33529;49.242;8.670;2022-12-29T04:27:03;10.50;99.90
47765;DHT22;33529;49.242;8.670;2022-12-29T04:29:48;10.40;99.90
47765;DHT22;33529;49.242;8.670;2022-12-29T04:32:42;10.50;99.90
47765;DHT22;33529;49.242;8.670;2022-12-29T04:35:09;10.50;99.90
47765;DHT22;33529;49.242;8.670;2022-12-29T04:37:36;10.50;99.90
47765;DHT22;33529;49.242;8.670;2022-12-29T04:40:03;10.50;99.90
47765;DHT22;33529;49.242;8.670;2022-12-29T04:42:30;10.60;99.90
47765;DHT22;33529;49.242;8.670;2022-12-29T04:44:58;10.50;99.90
47765;DHT22;33529;49.242;8.670;2022-12-29T04:47:43;10.50;99.90
47765;DHT22;33529;49.242;8.670;2022-12-29T04:50:41;10.60;99.90
47765;DHT22;33529;49.242;8.670;2022-12-29T04:53:16;10.60;99.90
47765;DHT22;33529;49.242;8.670;2022-12-29T04:55:49;10.60;99.90
47765;DHT22;33529;49.242;8.670;2022-12-29T04:58:16;10.60;99.90
47765;DHT22;33529;49.242;8.670;2022-12-29T05:00:48;10.60;99.90
47765;DHT22;33529;49.242;8.670;2022-12-29T05:03:15;10.70;99.90
47765;DHT22;33529;49.242;8.670;2022-12-29T05:05:45;10.70;99.90
47765;DHT22;33529;49.242;8.670;2022-12-29T05:08:12;10.80;99.90
47765;DHT22;33529;49.242;8.670;2022-12-29T05:10:44;10.80;99.90
47765;DHT22;33529;49.242;8.670;2022-12-29T05:13:12;10.90;99.90
47765;DHT22;33529;49.242;8.670;2022-12-29T05:15:45;10.90;99.90
47765;DHT22;33529;49.242;8.670;2022-12-29T05:18:12;10.90;99.90
47765;DHT22;33529;49.242;8.670;2022-12-29T05:20:39;10.90;99.90
47765;DHT22;33529;49.242;8.670;2022-12-29T05:23:06;10.90;99.90
47765;DHT22;33529;49.242;8.670;2022-12-29T05:25:33;10.90;99.90
47765;DHT22;33529;49.242;8.670;2022-12-29T05:28:27;10.90;99.90
47765;DHT22;33529;49.242;8.670;2022-12-29T05:31:03;11.00;99.90
47765;DHT22;33529;49.242;8.670;2022-12-29T05:33:31;11.00;99.90
47765;DHT22;33529;49.242;8.670;2022-12-29T05:36:04;11.00;99.90
47765;DHT22;33529;49.242;8.670;2022-12-29T05:38:32;10.90;99.90
47765;DHT22;33529;49.242;8.670;2022-12-29T05:40:59;10.90;99.90
47765;DHT22;33529;49.242;8.670;2022-12-29T05:43:58;10.90;99.90
47765;DHT22;33529;49.242;8.670;2022-12-29T05:46:31;10.90;99.90
47765;DHT22;33529;49.242;8.670;2022-12-29T05:49:18;10.90;99.90
47765;DHT22;33529;49.242;8.670;2022-12-29T05:52:07;10.90;99.90
47765;DHT22;33529;49.242;8.670;2022-12-29T05:54:34;10.80;99.90
47765;DHT22;33529;49.242;8.670;2022-12-29T05:57:07;10.80;99.90
47765;DHT22;33529;49.242;8.670;2022-12-29T05:59:34;10.80;99.90
47765;DHT22;33529;49.242;8.670;2022-12-29T06:02:01;10.80;99.90
47765;DHT22;33529;49.242;8.670;2022-12-29T06:04:29;10.80;99.90
47765;DHT22;33529;49.242;8.670;2022-12-29T06:06:56;10.80;99.90
47765;DHT22;33529;49.242;8.670;2022-12-29T06:09:33;10.80;99.90
47765;DHT22;33529;49.242;8.670;2022-12-29T06:12:01;10.80;99.90
47765;DHT22;33529;49.242;8.670;2022-12-29T06:14:28;10.80;99.90
47765;DHT22;33529;49.242;8.670;2022-12-29T06:16:57;10.80;99.90
47765;DHT22;33529;49.242;8.670;2022-12-29T06:19:24;10.80;99.90
47765;DHT22;33529;49.242;8.670;2022-12-29T06:21:51;10.90;99.90
47765;DHT22;33529;49.242;8.670;2022-12-29T06:24:20;10.90;99.90
47765;DHT22;33529;49.242;8.670;2022-12-29T06:26:48;10.80;99.90
47765;DHT22;33529;49.242;8.670;2022-12-29T06:29:16;10.90;99.90
47765;DHT22;33529;49.242;8.670;2022-12-29T06:31:44;10.80;99.90
47765;DHT22;33529;49.242;8.670;2022-12-29T06:34:16;10.80;99.90
47765;DHT22;33529;49.242;8.670;2022-12-29T06:36:43;10.90;99.90
47765;DHT22;33529;49.242;8.670;2022-12-29T06:39:10;11.00;99.90
47765;DHT22;33529;49.242;8.670;2022-12-29T06:41:37;11.00;99.90
47765;DHT22;33529;49.242;8.670;2022-12-29T06:44:27;11.00;99.90
47765;DHT22;33529;49.242;8.670;2022-12-29T06:46:59;11.00;99.90
47765;DHT22;33529;49.242;8.670;2022-12-29T06:49:26;10.90;99.90
47765;DHT22;33529;49.242;8.670;2022-12-29T06:51:53;11.00;99.90
47765;DHT22;33529;49.242;8.670;2022-12-29T06:54:19;11.00;99.90
47765;DHT22;33529;49.242;8.670;2022-12-29T06:56:46;11.00;99.90
47765;DHT22;33529;49.242;8.670;2022-12-29T06:59:13;11.00;99.90
47765;DHT22;33529;49.242;8.670;2022-12-29T07:01:40;11.00;99.90
47765;DHT22;33529;49.242;8.670;2022-12-29T07:04:07;11.00;99.90
47765;DHT22;33529;49.242;8.670;2022-12-29T07:06:33;11.00;99.90
47765;DHT22;33529;49.242;8.670;2022-12-29T07:09:00;11.00;99.90
47765;DHT22;33529;49.242;8.670;2022-12-29T07:11:27;11.10;99.90
47765;DHT22;33529;49.242;8.670;2022-12-29T07:13:54;11.20;99.90
47765;DHT22;33529;49.242;8.670;2022-12-29T07:16:20;11.20;99.90
47765;DHT22;33529;49.242;8.670;2022-12-29T07:18:48;11.10;99.90
47765;DHT22;33529;49.242;8.670;2022-12-29T07:21:14;11.20;99.90
47765;DHT22;33529;49.242;8.670;2022-12-29T07:23:41;11.20;99.90
47765;DHT22;33529;49.242;8.670;2022-12-29T07:26:11;11.30;99.90
47765;DHT22;33529;49.242;8.670;2022-12-29T07:28:40;11.30;99.90
47765;DHT22;33529;49.242;8.670;2022-12-29T07:31:14;11.20;99.90
47765;DHT22;33529;49.242;8.670;2022-12-29T07:33:42;11.30;99.90
47765;DHT22;33529;49.242;8.670;2022-12-29T07:36:11;11.30;99.90
47765;DHT22;33529;49.242;8.670;2022-12-29T07:38:38;11.40;99.90
47765;DHT22;33529;49.242;8.670;2022-12-29T07:41:05;11.50;99.90
47765;DHT22;33529;49.242;8.670;2022-12-29T07:43:31;11.50;99.90
47765;DHT22;33529;49.242;8.670;2022-12-29T07:46:18;11.50;99.90
47765;DHT22;33529;49.242;8.670;2022-12-29T07:49:05;11.50;99.90
47765;DHT22;33529;49.242;8.670;2022-12-29T07:51:32;11.50;99.90
47765;DHT22;33529;49.242;8.670;2022-12-29T07:53:59;11.50;99.90
47765;DHT22;33529;49.242;8.670;2022-12-29T07:56:27;11.50;99.90
47765;DHT22;33529;49.242;8.670;2022-12-29T07:58:54;11.50;99.90
47765;DHT22;33529;49.242;8.670;2022-12-29T08:01:21;11.60;99.90
47765;DHT22;33529;49.242;8.670;2022-12-29T08:03:50;11.60;99.90
47765;DHT22;33529;49.242;8.670;2022-12-29T08:06:22;11.70;99.90
47765;DHT22;33529;49.242;8.670;2022-12-29T08:08:49;11.60;99.90
47765;DHT22;33529;49.242;8.670;2022-12-29T08:11:16;11.60;99.90
47765;DHT22;33529;49.242;8.670;2022-12-29T08:13:43;11.60;99.90
47765;DHT22;33529;49.242;8.670;2022-12-29T08:16:09;11.50;99.90
47765;DHT22;33529;49.242;8.670;2022-12-29T08:18:36;11.50;99.90
47765;DHT22;33529;49.242;8.670;2022-12-29T08:21:04;11.60;99.90
47765;DHT22;33529;49.242;8.670;2022-12-29T08:23:31;11.60;99.90
47765;DHT22;33529;49.242;8.670;2022-12-29T08:25:59;11.60;99.90
47765;DHT22;33529;49.242;8.670;2022-12-29T08:28:27;11.60;99.90
47765;DHT22;33529;49.242;8.670;2022-12-29T08:30:56;11.80;99.90
47765;DHT22;33529;49.242;8.670;2022-12-29T08:33:23;11.80;99.90
47765;DHT22;33529;49.242;8.670;2022-12-29T08:35:50;11.80;99.90
47765;DHT22;33529;49.242;8.670;2022-12-29T08:38:17;11.80;99.90
47765;DHT22;33529;49.242;8.670;2022-12-29T08:40:44;11.90;99.90
47765;DHT22;33529;49.242;8.670;2022-12-29T08:43:11;12.00;99.90
47765;DHT22;33529;49.242;8.670;2022-12-29T08:45:42;11.90;99.90
47765;DHT22;33529;49.242;8.670;2022-12-29T08:48:09;12.00;99.90
47765;DHT22;33529;49.242;8.670;2022-12-29T08:50:36;12.00;99.90
47765;DHT22;33529;49.242;8.670;2022-12-29T08:53:03;12.00;99.90
47765;DHT22;33529;49.242;8.670;2022-12-29T08:55:29;12.00;99.90
47765;DHT22;33529;49.242;8.670;2022-12-29T08:57:56;12.00;99.90
47765;DHT22;33529;49.242;8.670;2022-12-29T09:00:23;12.10;99.90
47765;DHT22;33529;49.242;8.670;2022-12-29T09:02:50;12.10;99.90
47765;DHT22;33529;49.242;8.670;2022-12-29T09:05:17;12.10;99.90
47765;DHT22;33529;49.242;8.670;2022-12-29T09:07:44;12.00;99.90
47765;DHT22;33529;49.242;8.670;2022-12-29T09:10:11;12.20;99.90
47765;DHT22;33529;49.242;8.670;2022-12-29T09:12:38;12.20;99.90
47765;DHT22;33529;49.242;8.670;2022-12-29T09:15:05;12.10;99.90
47765;DHT22;33529;49.242;8.670;2022-12-29T09:17:32;12.10;99.90
47765;DHT22;33529;49.242;8.670;2022-12-29T09:20:13;12.10;99.90
47765;DHT22;33529;49.242;8.670;2022-12-29T09:22:41;12.20;99.90
47765;DHT22;33529;49.242;8.670;2022-12-29T09:25:08;12.30;99.90
47765;DHT22;33529;49.242;8.670;2022-12-29T09:27:36;12.30;99.90
47765;DHT22;33529;49.242;8.670;2022-12-29T09:30:05;12.30;99.90
47765;DHT22;33529;49.242;8.670;2022-12-29T09:32:33;12.30;99.90
47765;DHT22;33529;49.242;8.670;2022-12-29T09:35:07;12.20;99.90
47765;DHT22;33529;49.242;8.670;2022-12-29T09:37:34;12.30;99.90
47765;DHT22;33529;49.242;8.670;2022-12-29T09:40:01;12.20;99.90
47765;DHT22;33529;49.242;8.670;2022-12-29T09:42:55;12.30;99.90
47765;DHT22;33529;49.242;8.670;2022-12-29T09:45:54;12.30;99.90
47765;DHT22;33529;49.242;8.670;2022-12-29T09:48:27;12.30;99.90
47765;DHT22;33529;49.242;8.670;2022-12-29T09:50:59;12.30;99.90
47765;DHT22;33529;49.242;8.670;2022-12-29T09:53:47;12.30;99.90
47765;DHT22;33529;49.242;8.670;2022-12-29T09:56:21;12.30;99.90
47765;DHT22;33529;49.242;8.670;2022-12-29T09:58:59;12.30;99.90
47765;DHT22;33529;49.242;8.670;2022-12-29T10:04:52;12.40;99.90
47765;DHT22;33529;49.242;8.670;2022-12-29T10:10:31;12.40;99.90
47765;DHT22;33529;49.242;8.670;2022-12-29T10:13:09;12.30;99.90
47765;DHT22;33529;49.242;8.670;2022-12-29T10:24:02;12.10;99.90
47765;DHT22;33529;49.242;8.670;2022-12-29T10:26:36;12.00;99.90
47765;DHT22;33529;49.242;8.670;2022-12-29T10:29:06;11.80;99.90
47765;DHT22;33529;49.242;8.670;2022-12-29T10:31:40;11.90;99.90
47765;DHT22;33529;49.242;8.670;2022-12-29T10:34:26;11.80;99.90
47765;DHT22;33529;49.242;8.670;2022-12-29T10:36:58;11.90;99.90
47765;DHT22;33529;49.242;8.670;2022-12-29T10:39:33;12.00;99.90
47765;DHT22;33529;49.242;8.670;2022-12-29T10:42:15;12.00;99.90
47765;DHT22;33529;49.242;8.670;2022-12-29T10:44:45;12.10;99.90
47765;DHT22;33529;49.242;8.670;2022-12-29T10:47:16;12.10;99.90
47765;DHT22;33529;49.242;8.670;2022-12-29T10:49:46;12.00;99.90
47765;DHT22;33529;49.242;8.670;2022-12-29T10:52:16;12.10;99.90
47765;DHT22;33529;49.242;8.670;2022-12-29T10:57:31;12.10;99.90
47765;DHT22;33529;49.242;8.670;2022-12-29T10:59:59;12.10;99.90
47765;DHT22;33529;49.242;8.670;2022-12-29T11:05:35;11.90;99.90
47765;DHT22;33529;49.242;8.670;2022-12-29T11:08:08;11.80;99.90
47765;DHT22;33529;49.242;8.670;2022-12-29T11:10:42;11.80;99.90
47765;DHT22;33529;49.242;8.670;2022-12-29T11:13:16;11.80;99.90
47765;DHT22;33529;49.242;8.670;2022-12-29T11:15:45;11.80;99.90
47765;DHT22;33529;49.242;8.670;2022-12-29T11:18:32;11.90;99.90
47765;DHT22;33529;49.242;8.670;2022-12-29T11:21:02;12.10;99.90
47765;DHT22;33529;49.242;8.670;2022-12-29T11:28:40;12.50;99.90
47765;DHT22;33529;49.242;8.670;2022-12-29T11:31:08;12.60;99.90
47765;DHT22;33529;49.242;8.670;2022-12-29T11:33:37;12.70;99.90
47765;DHT22;33529;49.242;8.670;2022-12-29T11:36:17;12.70;99.90
47765;DHT22;33529;49.242;8.670;2022-12-29T11:38:48;12.80;99.90
47765;DHT22;33529;49.242;8.670;2022-12-29T11:41:30;12.80;99.90
47765;DHT22;33529;49.242;8.670;2022-12-29T11:44:00;12.80;99.90
47765;DHT22;33529;49.242;8.670;2022-12-29T11:46:32;12.80;99.90
47765;DHT22;33529;49.242;8.670;2022-12-29T11:49:00;12.90;99.90
47765;DHT22;33529;49.242;8.670;2022-12-29T11:51:37;12.90;99.90
47765;DHT22;33529;49.242;8.670;2022-12-29T11:54:05;12.90;99.90
47765;DHT22;33529;49.242;8.670;2022-12-29T11:56:41;12.90;99.90
47765;DHT22;33529;49.242;8.670;2022-12-29T12:01:57;12.80;99.90
47765;DHT22;33529;49.242;8.670;2022-12-29T12:04:30;12.80;99.90
47765;DHT22;33529;49.242;8.670;2022-12-29T12:07:12;12.70;99.90
47765;DHT22;33529;49.242;8.670;2022-12-29T12:09:52;12.60;99.90
47765;DHT22;33529;49.242;8.670;2022-12-29T12:12:45;12.50;99.90
47765;DHT22;33529;49.242;8.670;2022-12-29T12:15:22;12.50;99.90
47765;DHT22;33529;49.242;8.670;2022-12-29T12:18:02;12.50;99.90
47765;DHT22;33529;49.242;8.670;2022-12-29T12:20:46;12.50;99.90
47765;DHT22;33529;49.242;8.670;2022-12-29T12:23:59;12.50;99.90
47765;DHT22;33529;49.242;8.670;2022-12-29T12:28:45;12.70;99.90
47765;DHT22;33529;49.242;8.670;2022-12-29T12:31:45;12.70;99.90
47765;DHT22;33529;49.242;8.670;2022-12-29T12:34:27;12.80;99.90
47765;DHT22;33529;49.242;8.670;2022-12-29T12:53:43;13.00;99.90
47765;DHT22;33529;49.242;8.670;2022-12-29T12:56:47;13.00;99.90
47765;DHT22;33529;49.242;8.670;2022-12-29T13:05:34;12.80;99.90
47765;DHT22;33529;49.242;8.670;2022-12-29T13:10:55;12.70;99.90
47765;DHT22;33529;49.242;8.670;2022-12-29T13:13:37;12.70;99.90
47765;DHT22;33529;49.242;8.670;2022-12-29T13:22:17;12.70;99.90
47765;DHT22;33529;49.242;8.670;2022-12-29T13:24:54;12.80;99.90
47765;DHT22;33529;49.242;8.670;2022-12-29T13:27:42;12.80;99.90
47765;DHT22;33529;49.242;8.670;2022-12-29T13:30:15;12.80;99.90
47765;DHT22;33529;49.242;8.670;2022-12-29T13:33:17;12.90;99.90
47765;DHT22;33529;49.242;8.670;2022-12-29T13:36:10;12.80;99.90
47765;DHT22;33529;49.242;8.670;2022-12-29T13:39:11;12.80;99.90
47765;DHT22;33529;49.242;8.670;2022-12-29T13:41:52;12.70;99.90
47765;DHT22;33529;49.242;8.670;2022-12-29T13:44:43;12.70;99.90
47765;DHT22;33529;49.242;8.670;2022-12-29T13:49:50;12.60;99.90
47765;DHT22;33529;49.242;8.670;2022-12-29T13:52:28;12.60;99.90
47765;DHT22;33529;49.242;8.670;2022-12-29T13:58:35;12.50;99.90
47765;DHT22;33529;49.242;8.670;2022-12-29T14:03:53;12.50;99.90
47765;DHT22;33529;49.242;8.670;2022-12-29T14:06:24;12.50;99.90
47765;DHT22;33529;49.242;8.670;2022-12-29T14:11:23;12.40;99.90
47765;DHT22;33529;49.242;8.670;2022-12-29T14:13:55;12.40;99.90
47765;DHT22;33529;49.242;8.670;2022-12-29T14:16:31;12.40;99.90
47765;DHT22;33529;49.242;8.670;2022-12-29T14:19:20;12.40;99.90
47765;DHT22;33529;49.242;8.670;2022-12-29T14:21:57;12.40;99.90
47765;DHT22;33529;49.242;8.670;2022-12-29T14:26:53;12.30;99.90
47765;DHT22;33529;49.242;8.670;2022-12-29T14:31:51;12.30;99.90
47765;DHT22;33529;49.242;8.670;2022-12-29T14:37:01;12.10;99.90
47765;DHT22;33529;49.242;8.670;2022-12-29T14:39:33;11.90;99.90
47765;DHT22;33529;49.242;8.670;2022-12-29T14:44:52;11.50;99.90
47765;DHT22;33529;49.242;8.670;2022-12-29T14:47:28;11.30;99.90
47765;DHT22;33529;49.242;8.670;2022-12-29T14:50:05;11.20;99.90
47765;DHT22;33529;49.242;8.670;2022-12-29T14:52:32;11.00;99.90
47765;DHT22;33529;49.242;8.670;2022-12-29T14:57:47;10.80;99.90
47765;DHT22;33529;49.242;8.670;2022-12-29T15:00:24;10.70;99.90
47765;DHT22;33529;49.242;8.670;2022-12-29T15:03:07;10.60;99.90
47765;DHT22;33529;49.242;8.670;2022-12-29T15:05:48;10.40;99.90
47765;DHT22;33529;49.242;8.670;2022-12-29T15:08:22;10.10;99.90
47765;DHT22;33529;49.242;8.670;2022-12-29T15:10:58;10.00;99.90
47765;DHT22;33529;49.242;8.670;2022-12-29T15:13:36;9.90;99.90
47765;DHT22;33529;49.242;8.670;2022-12-29T15:16:04;9.80;99.90
47765;DHT22;33529;49.242;8.670;2022-12-29T15:18:32;9.80;99.90
47765;DHT22;33529;49.242;8.670;2022-12-29T15:21:04;9.80;99.90
47765;DHT22;33529;49.242;8.670;2022-12-29T15:23:32;9.80;99.90
47765;DHT22;33529;49.242;8.670;2022-12-29T15:26:05;9.80;99.90
47765;DHT22;33529;49.242;8.670;2022-12-29T15:28:46;9.80;99.90
47765;DHT22;33529;49.242;8.670;2022-12-29T15:31:23;9.80;99.90
47765;DHT22;33529;49.242;8.670;2022-12-29T15:34:12;9.90;99.90
47765;DHT22;33529;49.242;8.670;2022-12-29T15:36:40;9.90;99.90
47765;DHT22;33529;49.242;8.670;2022-12-29T15:39:26;9.80;99.90
47765;DHT22;33529;49.242;8.670;2022-12-29T15:42:06;9.90;99.90
47765;DHT22;33529;49.242;8.670;2022-12-29T15:44:42;9.90;99.90
47765;DHT22;33529;49.242;8.670;2022-12-29T15:47:21;9.90;99.90
47765;DHT22;33529;49.242;8.670;2022-12-29T15:49:50;9.80;99.90
47765;DHT22;33529;49.242;8.670;2022-12-29T15:52:22;9.70;99.90
47765;DHT22;33529;49.242;8.670;2022-12-29T15:54:51;9.70;99.90
47765;DHT22;33529;49.242;8.670;2022-12-29T15:57:25;9.60;99.90
47765;DHT22;33529;49.242;8.670;2022-12-29T15:59:52;9.50;99.90
47765;DHT22;33529;49.242;8.670;2022-12-29T16:02:22;9.40;99.90
47765;DHT22;33529;49.242;8.670;2022-12-29T16:04:50;9.40;99.90
47765;DHT22;33529;49.242;8.670;2022-12-29T16:07:37;9.30;99.90
47765;DHT22;33529;49.242;8.670;2022-12-29T16:10:38;9.30;99.90
47765;DHT22;33529;49.242;8.670;2022-12-29T16:13:21;9.30;99.90
47765;DHT22;33529;49.242;8.670;2022-12-29T16:16:07;9.30;99.90
47765;DHT22;33529;49.242;8.670;2022-12-29T16:18:37;9.30;99.90
47765;DHT22;33529;49.242;8.670;2022-12-29T16:21:06;9.20;99.90
47765;DHT22;33529;49.242;8.670;2022-12-29T16:23:44;9.20;99.90
47765;DHT22;33529;49.242;8.670;2022-12-29T16:26:16;9.30;99.90
47765;DHT22;33529;49.242;8.670;2022-12-29T16:28:48;9.20;99.90
47765;DHT22;33529;49.242;8.670;2022-12-29T16:31:21;9.20;99.90
47765;DHT22;33529;49.242;8.670;2022-12-29T16:33:48;9.20;99.90
47765;DHT22;33529;49.242;8.670;2022-12-29T16:36:52;9.20;99.90
47765;DHT22;33529;49.242;8.670;2022-12-29T16:39:38;9.30;99.90
47765;DHT22;33529;49.242;8.670;2022-12-29T16:42:33;9.30;99.90
47765;DHT22;33529;49.242;8.670;2022-12-29T16:50:42;9.20;99.90
47765;DHT22;33529;49.242;8.670;2022-12-29T16:53:23;9.30;99.90
47765;DHT22;33529;49.242;8.670;2022-12-29T16:55:52;9.30;99.90
47765;DHT22;33529;49.242;8.670;2022-12-29T16:58:22;9.20;99.90
47765;DHT22;33529;49.242;8.670;2022-12-29T17:00:55;9.30;99.90
47765;DHT22;33529;49.242;8.670;2022-12-29T17:03:33;9.30;99.90
47765;DHT22;33529;49.242;8.670;2022-12-29T17:06:00;9.30;99.90
47765;DHT22;33529;49.242;8.670;2022-12-29T17:08:27;9.20;99.90
47765;DHT22;33529;49.242;8.670;2022-12-29T17:10:55;9.20;99.90
47765;DHT22;33529;49.242;8.670;2022-12-29T17:13:41;9.30;99.90
47765;DHT22;33529;49.242;8.670;2022-12-29T17:16:10;9.30;99.90
47765;DHT22;33529;49.242;8.670;2022-12-29T17:18:38;9.30;99.90
47765;DHT22;33529;49.242;8.670;2022-12-29T17:21:05;9.30;99.90
47765;DHT22;33529;49.242;8.670;2022-12-29T17:23:32;9.30;99.90
47765;DHT22;33529;49.242;8.670;2022-12-29T17:26:00;9.30;99.90
47765;DHT22;33529;49.242;8.670;2022-12-29T17:28:30;9.30;99.90
47765;DHT22;33529;49.242;8.670;2022-12-29T17:31:02;9.20;99.90
47765;DHT22;33529;49.242;8.670;2022-12-29T17:33:36;9.20;99.90
47765;DHT22;33529;49.242;8.670;2022-12-29T17:36:03;9.30;99.90
47765;DHT22;33529;49.242;8.670;2022-12-29T17:38:35;9.30;99.90
47765;DHT22;33529;49.242;8.670;2022-12-29T17:41:03;9.30;99.90
47765;DHT22;33529;49.242;8.670;2022-12-29T17:43:30;9.40;99.90
47765;DHT22;33529;49.242;8.670;2022-12-29T17:46:06;9.40;99.90
47765;DHT22;33529;49.242;8.670;2022-12-29T17:48:34;9.30;99.90
47765;DHT22;33529;49.242;8.670;2022-12-29T17:51:01;9.30;99.90
47765;DHT22;33529;49.242;8.670;2022-12-29T17:53:30;9.30;99.90
47765;DHT22;33529;49.242;8.670;2022-12-29T17:55:57;9.20;99.90
47765;DHT22;33529;49.242;8.670;2022-12-29T17:58:26;9.20;99.90
47765;DHT22;33529;49.242;8.670;2022-12-29T18:00:57;9.20;99.90
47765;DHT22;33529;49.242;8.670;2022-12-29T18:03:26;9.20;99.90
47765;DHT22;33529;49.242;8.670;2022-12-29T18:05:54;9.20;99.90